createdAt,value
2022-08-24T00:00:49.000Z,9.46
2022-08-24T00:01:49.000Z,9.40
2022-08-24T00:02:50.000Z,9.32
2022-08-24T00:03:49.000Z,9.41
2022-08-24T00:04:51.000Z,9.32
2022-08-24T00:05:50.000Z,9.40
2022-08-24T00:06:51.000Z,9.36
2022-08-24T00:07:50.000Z,9.37
2022-08-24T00:08:51.000Z,9.31
2022-08-24T00:09:49.000Z,9.35
2022-08-24T00:10:50.000Z,9.39
2022-08-24T00:11:49.000Z,9.35
2022-08-24T00:12:50.000Z,9.35
2022-08-24T00:13:51.000Z,9.41
2022-08-24T00:14:49.000Z,9.41
2022-08-24T00:15:50.000Z,9.35
2022-08-24T00:16:49.000Z,9.34
2022-08-24T00:17:49.000Z,9.34
2022-08-24T00:18:49.000Z,9.38
2022-08-24T00:19:50.000Z,9.38
2022-08-24T00:20:50.000Z,9.40
2022-08-24T00:21:50.000Z,9.33
2022-08-24T00:22:50.000Z,9.36
2022-08-24T00:23:50.000Z,9.45
2022-08-24T00:24:50.000Z,9.42
2022-08-24T00:25:50.000Z,9.38
2022-08-24T00:26:51.000Z,9.37
2022-08-24T00:27:50.000Z,9.38
2022-08-24T00:28:49.000Z,9.39
2022-08-24T00:29:49.000Z,9.36
2022-08-24T00:30:50.000Z,9.41
2022-08-24T00:31:50.000Z,9.43
2022-08-24T00:32:50.000Z,9.43
2022-08-24T00:33:49.000Z,9.40
2022-08-24T00:34:50.000Z,9.44
2022-08-24T00:35:50.000Z,9.40
2022-08-24T00:36:50.000Z,9.47
2022-08-24T00:37:50.000Z,9.38
2022-08-24T00:38:51.000Z,9.40
2022-08-24T00:39:49.000Z,9.44
2022-08-24T00:40:49.000Z,9.42
2022-08-24T00:41:51.000Z,9.39
2022-08-24T00:42:50.000Z,9.44
2022-08-24T00:43:59.000Z,9.49
2022-08-24T00:44:50.000Z,9.46
2022-08-24T00:46:05.000Z,9.41
2022-08-24T00:47:00.000Z,9.40
2022-08-24T00:47:57.000Z,9.41
2022-08-24T00:48:57.000Z,9.43
2022-08-24T00:49:57.000Z,9.44
2022-08-24T00:51:00.000Z,9.49
2022-08-24T00:52:00.000Z,9.43
2022-08-24T00:52:55.000Z,9.41
2022-08-24T00:53:54.000Z,9.41
2022-08-24T00:54:58.000Z,9.45
2022-08-24T00:55:54.000Z,9.42
2022-08-24T00:56:54.000Z,9.41
2022-08-24T00:57:53.000Z,9.51
2022-08-24T00:58:55.000Z,9.46
2022-08-24T00:59:58.000Z,9.46
2022-08-24T01:00:57.000Z,9.39
2022-08-24T01:01:52.000Z,9.36
2022-08-24T01:02:53.000Z,9.56
2022-08-24T01:03:50.000Z,9.56
2022-08-24T01:04:59.000Z,9.56
2022-08-24T01:05:49.000Z,9.56
2022-08-24T01:06:49.000Z,9.58
2022-08-24T01:07:50.000Z,9.57
2022-08-24T01:08:49.000Z,9.46
2022-08-24T01:09:51.000Z,9.50
2022-08-24T01:10:57.000Z,9.49
2022-08-24T01:11:50.000Z,9.61
2022-08-24T01:12:54.000Z,9.61
2022-08-24T01:13:51.000Z,9.52
2022-08-24T01:14:49.000Z,9.52
2022-08-24T01:15:52.000Z,9.56
2022-08-24T01:16:54.000Z,9.60
2022-08-24T01:17:55.000Z,9.58
2022-08-24T01:18:49.000Z,9.51
2022-08-24T01:19:55.000Z,9.50
2022-08-24T01:20:59.000Z,9.56
2022-08-24T01:22:19.000Z,9.60
2022-08-24T01:22:59.000Z,9.48
2022-08-24T01:23:53.000Z,9.55
2022-08-24T01:24:49.000Z,9.58
2022-08-24T01:25:49.000Z,9.53
2022-08-24T01:26:49.000Z,9.50
2022-08-24T01:27:52.000Z,9.55
2022-08-24T01:28:54.000Z,9.52
2022-08-24T01:29:51.000Z,9.49
2022-08-24T01:30:50.000Z,9.45
2022-08-24T01:31:50.000Z,9.45
2022-08-24T01:32:55.000Z,9.48
2022-08-24T01:33:52.000Z,9.46
2022-08-24T01:34:50.000Z,9.41
2022-08-24T01:35:55.000Z,9.40
2022-08-24T01:36:52.000Z,9.45
2022-08-24T01:37:51.000Z,9.43
2022-08-24T01:38:50.000Z,9.38
2022-08-24T01:39:53.000Z,9.42
2022-08-24T01:40:55.000Z,9.36
2022-08-24T01:41:51.000Z,9.38
2022-08-24T01:42:51.000Z,9.37
2022-08-24T01:43:51.000Z,9.35
2022-08-24T01:44:50.000Z,9.33
2022-08-24T01:45:50.000Z,9.34
2022-08-24T01:46:53.000Z,9.33
2022-08-24T01:47:50.000Z,9.35
2022-08-24T01:48:50.000Z,9.34
2022-08-24T01:49:50.000Z,9.29
2022-08-24T01:50:51.000Z,9.37
2022-08-24T01:51:50.000Z,9.32
2022-08-24T01:52:51.000Z,9.31
2022-08-24T01:53:50.000Z,9.27
2022-08-24T01:54:50.000Z,9.32
2022-08-24T01:55:50.000Z,9.25
2022-08-24T01:56:50.000Z,9.27
2022-08-24T01:57:50.000Z,9.27
2022-08-24T01:58:50.000Z,9.26
2022-08-24T01:59:50.000Z,9.23
2022-08-24T02:00:50.000Z,9.25
2022-08-24T02:01:54.000Z,9.26
2022-08-24T02:02:50.000Z,9.31
2022-08-24T02:03:50.000Z,9.24
2022-08-24T02:04:50.000Z,9.24
2022-08-24T02:05:51.000Z,9.19
2022-08-24T02:06:50.000Z,9.20
2022-08-24T02:07:51.000Z,9.21
2022-08-24T02:08:50.000Z,9.12
2022-08-24T02:09:50.000Z,9.12
2022-08-24T02:10:50.000Z,9.17
2022-08-24T02:11:50.000Z,9.17
2022-08-24T02:12:57.000Z,9.15
2022-08-24T02:13:50.000Z,9.15
2022-08-24T02:14:50.000Z,9.12
2022-08-24T02:15:50.000Z,9.18
2022-08-24T02:16:50.000Z,9.12
2022-08-24T02:17:50.000Z,9.15
2022-08-24T02:18:50.000Z,9.14
2022-08-24T02:19:50.000Z,9.10
2022-08-24T02:20:50.000Z,9.11
2022-08-24T02:21:50.000Z,9.14
2022-08-24T02:22:52.000Z,9.11
2022-08-24T02:23:50.000Z,9.17
2022-08-24T02:24:50.000Z,9.14
2022-08-24T02:25:51.000Z,9.15
2022-08-24T02:26:50.000Z,9.18
2022-08-24T02:27:50.000Z,9.14
2022-08-24T02:28:50.000Z,9.18
2022-08-24T02:29:50.000Z,9.16
2022-08-24T02:30:50.000Z,9.15
2022-08-24T02:31:50.000Z,9.18
2022-08-24T02:32:50.000Z,9.16
2022-08-24T02:33:50.000Z,9.15
2022-08-24T02:34:50.000Z,9.17
2022-08-24T02:35:51.000Z,9.19
2022-08-24T02:36:51.000Z,9.16
2022-08-24T02:37:50.000Z,9.17
2022-08-24T02:38:50.000Z,9.18
2022-08-24T02:39:51.000Z,9.15
2022-08-24T02:40:50.000Z,9.17
2022-08-24T02:41:50.000Z,9.14
2022-08-24T02:42:50.000Z,9.18
2022-08-24T02:43:50.000Z,9.16
2022-08-24T02:44:49.000Z,9.17
2022-08-24T02:45:50.000Z,9.15
2022-08-24T02:46:49.000Z,9.17
2022-08-24T02:47:49.000Z,9.16
2022-08-24T02:48:50.000Z,9.17
2022-08-24T02:49:50.000Z,9.16
2022-08-24T02:50:51.000Z,9.15
2022-08-24T02:51:50.000Z,9.15
2022-08-24T02:52:50.000Z,9.15
2022-08-24T02:53:50.000Z,9.15
2022-08-24T02:54:49.000Z,9.14
2022-08-24T02:55:50.000Z,9.15
2022-08-24T02:56:50.000Z,9.12
2022-08-24T02:57:50.000Z,9.12
2022-08-24T02:58:49.000Z,9.07
2022-08-24T02:59:49.000Z,9.10
2022-08-24T03:00:49.000Z,9.10
2022-08-24T03:01:49.000Z,9.11
2022-08-24T03:02:51.000Z,9.04
2022-08-24T03:03:50.000Z,9.06
2022-08-24T03:04:50.000Z,9.07
2022-08-24T03:05:50.000Z,9.10
2022-08-24T03:06:50.000Z,9.08
2022-08-24T03:07:50.000Z,9.06
2022-08-24T03:08:50.000Z,9.11
2022-08-24T03:09:49.000Z,9.09
2022-08-24T03:10:50.000Z,9.11
2022-08-24T03:11:50.000Z,9.08
2022-08-24T03:12:50.000Z,9.07
2022-08-24T03:13:50.000Z,9.06
2022-08-24T03:14:49.000Z,9.05
2022-08-24T03:15:49.000Z,9.02
2022-08-24T03:16:50.000Z,9.02
2022-08-24T03:17:50.000Z,8.99
2022-08-24T03:18:50.000Z,9.02
2022-08-24T03:19:49.000Z,9.01
2022-08-24T03:20:50.000Z,9.02
2022-08-24T03:21:49.000Z,8.95
2022-08-24T03:22:51.000Z,9.00
2022-08-24T03:23:50.000Z,9.00
2022-08-24T03:24:50.000Z,8.99
2022-08-24T03:25:50.000Z,8.95
2022-08-24T03:26:50.000Z,8.97
2022-08-24T03:27:51.000Z,8.99
2022-08-24T03:28:50.000Z,8.94
2022-08-24T03:29:50.000Z,8.95
2022-08-24T03:30:50.000Z,8.93
2022-08-24T03:31:49.000Z,8.94
2022-08-24T03:32:50.000Z,8.89
2022-08-24T03:33:49.000Z,8.92
2022-08-24T03:34:50.000Z,8.96
2022-08-24T03:35:49.000Z,8.88
2022-08-24T03:36:49.000Z,8.91
2022-08-24T03:37:50.000Z,8.87
2022-08-24T03:38:50.000Z,8.88
2022-08-24T03:39:50.000Z,8.85
2022-08-24T03:40:50.000Z,8.85
2022-08-24T03:41:49.000Z,8.87
2022-08-24T03:42:50.000Z,8.87
2022-08-24T03:43:49.000Z,8.87
2022-08-24T03:44:50.000Z,8.87
2022-08-24T03:45:49.000Z,8.90
2022-08-24T03:46:50.000Z,8.84
2022-08-24T03:47:50.000Z,8.86
2022-08-24T03:48:51.000Z,8.87
2022-08-24T03:49:49.000Z,8.82
2022-08-24T03:50:49.000Z,8.84
2022-08-24T03:51:50.000Z,8.84
2022-08-24T03:52:50.000Z,8.82
2022-08-24T03:53:51.000Z,8.80
2022-08-24T03:54:51.000Z,8.80
2022-08-24T03:55:50.000Z,8.83
2022-08-24T03:56:49.000Z,8.76
2022-08-24T03:57:50.000Z,8.79
2022-08-24T03:58:50.000Z,8.77
2022-08-24T03:59:49.000Z,8.76
2022-08-24T04:00:49.000Z,8.80
2022-08-24T04:01:50.000Z,8.85
2022-08-24T04:02:50.000Z,8.80
2022-08-24T04:03:52.000Z,8.84
2022-08-24T04:04:49.000Z,8.82
2022-08-24T04:05:49.000Z,8.79
2022-08-24T04:06:50.000Z,8.78
2022-08-24T04:07:49.000Z,8.82
2022-08-24T04:08:51.000Z,8.78
2022-08-24T04:09:49.000Z,8.77
2022-08-24T04:10:49.000Z,8.78
2022-08-24T04:11:49.000Z,8.76
2022-08-24T04:12:49.000Z,8.82
2022-08-24T04:13:52.000Z,8.82
2022-08-24T04:14:51.000Z,8.78
2022-08-24T04:15:51.000Z,8.78
2022-08-24T04:16:49.000Z,8.79
2022-08-24T04:17:49.000Z,8.77
2022-08-24T04:18:50.000Z,8.77
2022-08-24T04:19:54.000Z,8.83
2022-08-24T04:20:49.000Z,8.83
2022-08-24T04:21:49.000Z,8.83
2022-08-24T04:22:50.000Z,8.83
2022-08-24T04:23:51.000Z,8.85
2022-08-24T04:24:49.000Z,8.88
2022-08-24T04:25:49.000Z,8.85
2022-08-24T04:26:50.000Z,8.88
2022-08-24T04:27:50.000Z,8.86
2022-08-24T04:28:50.000Z,8.88
2022-08-24T04:29:50.000Z,8.87
2022-08-24T04:30:49.000Z,8.85
2022-08-24T04:31:49.000Z,8.88
2022-08-24T04:32:49.000Z,8.89
2022-08-24T04:33:50.000Z,8.92
2022-08-24T04:34:50.000Z,8.92
2022-08-24T04:35:50.000Z,8.96
2022-08-24T04:36:50.000Z,9.02
2022-08-24T04:37:50.000Z,8.95
2022-08-24T04:38:50.000Z,8.94
2022-08-24T04:39:50.000Z,8.96
2022-08-24T04:40:50.000Z,8.93
2022-08-24T04:41:50.000Z,8.98
2022-08-24T04:42:50.000Z,9.00
2022-08-24T04:43:50.000Z,9.08
2022-08-24T04:44:50.000Z,9.10
2022-08-24T04:45:51.000Z,9.11
2022-08-24T04:46:50.000Z,9.01
2022-08-24T04:47:50.000Z,9.04
2022-08-24T04:48:50.000Z,9.06
2022-08-24T04:49:50.000Z,9.11
2022-08-24T04:50:50.000Z,9.08
2022-08-24T04:51:50.000Z,9.23
2022-08-24T04:52:51.000Z,9.17
2022-08-24T04:53:50.000Z,9.17
2022-08-24T04:54:50.000Z,9.16
2022-08-24T04:55:51.000Z,9.18
2022-08-24T04:56:50.000Z,9.15
2022-08-24T04:57:50.000Z,9.16
2022-08-24T04:58:54.000Z,9.19
2022-08-24T04:59:54.000Z,9.13
2022-08-24T05:00:50.000Z,9.17
2022-08-24T05:01:51.000Z,9.16
2022-08-24T05:02:50.000Z,9.12
2022-08-24T05:03:52.000Z,9.12
2022-08-24T05:04:50.000Z,9.13
2022-08-24T05:05:50.000Z,9.23
2022-08-24T05:06:50.000Z,9.24
2022-08-24T05:07:50.000Z,9.24
2022-08-24T05:08:50.000Z,9.20
2022-08-24T05:09:50.000Z,9.35
2022-08-24T05:10:50.000Z,9.36
2022-08-24T05:11:50.000Z,9.25
2022-08-24T05:12:50.000Z,9.27
2022-08-24T05:13:52.000Z,9.19
2022-08-24T05:14:50.000Z,9.24
2022-08-24T05:15:50.000Z,9.15
2022-08-24T05:16:50.000Z,9.17
2022-08-24T05:17:50.000Z,9.20
2022-08-24T05:18:50.000Z,9.29
2022-08-24T05:19:50.000Z,9.33
2022-08-24T05:20:50.000Z,9.29
2022-08-24T05:21:50.000Z,9.30
2022-08-24T05:22:54.000Z,9.18
2022-08-24T05:23:50.000Z,9.19
2022-08-24T05:24:50.000Z,9.22
2022-08-24T05:25:50.000Z,9.24
2022-08-24T05:26:51.000Z,9.28
2022-08-24T05:27:50.000Z,9.22
2022-08-24T05:28:55.000Z,9.28
2022-08-24T05:29:53.000Z,9.30
2022-08-24T05:30:50.000Z,9.27
2022-08-24T05:31:50.000Z,9.24
2022-08-24T05:32:50.000Z,9.29
2022-08-24T05:33:50.000Z,9.29
2022-08-24T05:34:50.000Z,9.26
2022-08-24T05:35:49.000Z,9.30
2022-08-24T05:36:50.000Z,9.29
2022-08-24T05:37:50.000Z,9.33
2022-08-24T05:38:52.000Z,9.36
2022-08-24T05:39:49.000Z,9.33
2022-08-24T05:40:49.000Z,9.35
2022-08-24T05:41:49.000Z,9.46
2022-08-24T05:42:49.000Z,9.42
2022-08-24T05:43:49.000Z,9.47
2022-08-24T05:44:49.000Z,9.37
2022-08-24T05:45:49.000Z,9.45
2022-08-24T05:46:50.000Z,9.41
2022-08-24T05:47:49.000Z,9.36
2022-08-24T05:48:50.000Z,9.57
2022-08-24T05:49:51.000Z,9.52
2022-08-24T05:50:53.000Z,9.52
2022-08-24T05:51:50.000Z,9.49
2022-08-24T05:52:49.000Z,9.42
2022-08-24T05:53:50.000Z,9.53
2022-08-24T05:54:53.000Z,9.48
2022-08-24T05:55:50.000Z,9.45
2022-08-24T05:56:51.000Z,9.42
2022-08-24T05:57:50.000Z,9.56
2022-08-24T05:58:49.000Z,9.52
2022-08-24T05:59:50.000Z,9.57
2022-08-24T06:00:49.000Z,9.46
2022-08-24T06:01:50.000Z,9.44
2022-08-24T06:02:52.000Z,9.48
2022-08-24T06:03:52.000Z,9.46
2022-08-24T06:04:50.000Z,9.46
2022-08-24T06:05:51.000Z,9.50
2022-08-24T06:06:49.000Z,9.50
2022-08-24T06:07:49.000Z,9.49
2022-08-24T06:08:53.000Z,9.48
2022-08-24T06:09:52.000Z,9.50
2022-08-24T06:10:49.000Z,9.52
2022-08-24T06:11:49.000Z,9.50
2022-08-24T06:12:49.000Z,9.59
2022-08-24T06:13:51.000Z,9.52
2022-08-24T06:14:49.000Z,9.59
2022-08-24T06:16:05.000Z,9.54
2022-08-24T06:16:50.000Z,9.57
2022-08-24T06:17:49.000Z,9.53
2022-08-24T06:18:51.000Z,9.54
2022-08-24T06:19:49.000Z,9.63
2022-08-24T06:20:49.000Z,9.65
2022-08-24T06:21:51.000Z,9.66
2022-08-24T06:22:49.000Z,9.76
2022-08-24T06:23:50.000Z,9.88
2022-08-24T06:24:54.000Z,9.90
2022-08-24T06:25:57.000Z,10.10
2022-08-24T06:26:54.000Z,10.41
2022-08-24T06:27:49.000Z,10.08
2022-08-24T06:28:51.000Z,10.00
2022-08-24T06:29:56.000Z,10.14
2022-08-24T06:30:59.000Z,10.01
2022-08-24T06:31:50.000Z,10.01
2022-08-24T06:32:49.000Z,10.09
2022-08-24T06:33:49.000Z,10.23
2022-08-24T06:34:53.000Z,10.18
2022-08-24T06:35:49.000Z,9.95
2022-08-24T06:36:49.000Z,9.89
2022-08-24T06:37:49.000Z,9.92
2022-08-24T06:38:49.000Z,10.00
2022-08-24T06:39:49.000Z,10.12
2022-08-24T06:40:49.000Z,10.07
2022-08-24T06:41:49.000Z,9.88
2022-08-24T06:42:49.000Z,9.99
2022-08-24T06:43:49.000Z,9.94
2022-08-24T06:44:50.000Z,9.82
2022-08-24T06:45:50.000Z,9.67
2022-08-24T06:46:50.000Z,9.64
2022-08-24T06:47:49.000Z,9.78
2022-08-24T06:48:49.000Z,9.61
2022-08-24T06:49:49.000Z,9.56
2022-08-24T06:50:50.000Z,9.61
2022-08-24T06:51:50.000Z,9.73
2022-08-24T06:52:49.000Z,9.73
2022-08-24T06:53:49.000Z,9.61
2022-08-24T06:54:52.000Z,9.51
2022-08-24T06:55:55.000Z,9.47
2022-08-24T06:56:49.000Z,9.54
2022-08-24T06:57:49.000Z,9.53
2022-08-24T06:58:49.000Z,9.56
2022-08-24T06:59:49.000Z,9.58
2022-08-24T07:00:49.000Z,9.58
2022-08-24T07:01:49.000Z,9.57
2022-08-24T07:02:49.000Z,9.62
2022-08-24T07:03:50.000Z,9.58
2022-08-24T07:04:49.000Z,9.63
2022-08-24T07:05:51.000Z,9.67
2022-08-24T07:06:50.000Z,9.75
2022-08-24T07:07:49.000Z,9.66
2022-08-24T07:08:51.000Z,9.65
2022-08-24T07:09:49.000Z,9.65
2022-08-24T07:10:50.000Z,9.71
2022-08-24T07:11:50.000Z,9.67
2022-08-24T07:12:49.000Z,9.72
2022-08-24T07:13:50.000Z,9.65
2022-08-24T07:14:49.000Z,9.71
2022-08-24T07:15:51.000Z,9.65
2022-08-24T07:16:50.000Z,9.75
2022-08-24T07:17:50.000Z,9.77
2022-08-24T07:18:50.000Z,9.80
2022-08-24T07:19:49.000Z,9.71
2022-08-24T07:20:50.000Z,9.76
2022-08-24T07:21:55.000Z,9.79
2022-08-24T07:22:50.000Z,10.12
2022-08-24T07:23:54.000Z,10.00
2022-08-24T07:24:49.000Z,9.83
2022-08-24T07:25:50.000Z,9.80
2022-08-24T07:26:49.000Z,9.81
2022-08-24T07:27:49.000Z,9.92
2022-08-24T07:28:52.000Z,9.84
2022-08-24T07:29:52.000Z,9.84
2022-08-24T07:30:50.000Z,9.86
2022-08-24T07:31:49.000Z,9.86
2022-08-24T07:32:50.000Z,9.82
2022-08-24T07:33:49.000Z,9.87
2022-08-24T07:34:50.000Z,9.90
2022-08-24T07:35:49.000Z,9.86
2022-08-24T07:36:51.000Z,9.85
2022-08-24T07:37:49.000Z,9.84
2022-08-24T07:38:52.000Z,9.86
2022-08-24T07:39:49.000Z,9.88
2022-08-24T07:40:50.000Z,9.89
2022-08-24T07:41:49.000Z,9.91
2022-08-24T07:42:51.000Z,9.87
2022-08-24T07:43:51.000Z,9.91
2022-08-24T07:44:50.000Z,9.94
2022-08-24T07:45:50.000Z,9.95
2022-08-24T07:46:49.000Z,10.00
2022-08-24T07:47:50.000Z,9.98
2022-08-24T07:48:49.000Z,10.06
2022-08-24T07:49:49.000Z,10.08
2022-08-24T07:50:49.000Z,10.10
2022-08-24T07:51:51.000Z,10.13
2022-08-24T07:52:50.000Z,10.10
2022-08-24T07:53:49.000Z,10.17
2022-08-24T07:54:50.000Z,10.17
2022-08-24T07:55:54.000Z,10.15
2022-08-24T07:56:49.000Z,10.15
2022-08-24T07:57:49.000Z,10.19
2022-08-24T07:58:49.000Z,10.30
2022-08-24T07:59:49.000Z,10.29
2022-08-24T08:00:50.000Z,10.32
2022-08-24T08:01:51.000Z,10.31
2022-08-24T08:02:49.000Z,10.37
2022-08-24T08:03:50.000Z,10.50
2022-08-24T08:04:49.000Z,10.53
2022-08-24T08:05:57.000Z,10.44
2022-08-24T08:06:52.000Z,10.48
2022-08-24T08:07:50.000Z,10.54
2022-08-24T08:08:49.000Z,10.57
2022-08-24T08:09:50.000Z,10.51
2022-08-24T08:10:50.000Z,10.63
2022-08-24T08:11:49.000Z,10.58
2022-08-24T08:12:50.000Z,10.61
2022-08-24T08:13:49.000Z,10.63
2022-08-24T08:14:49.000Z,10.59
2022-08-24T08:15:49.000Z,10.61
2022-08-24T08:16:49.000Z,10.64
2022-08-24T08:17:49.000Z,10.62
2022-08-24T08:18:49.000Z,10.65
2022-08-24T08:19:49.000Z,10.65
2022-08-24T08:20:50.000Z,10.60
2022-08-24T08:21:54.000Z,10.63
2022-08-24T08:22:55.000Z,10.64
2022-08-24T08:23:55.000Z,10.75
2022-08-24T08:24:49.000Z,10.75
2022-08-24T08:25:53.000Z,10.75
2022-08-24T08:26:49.000Z,10.75
2022-08-24T08:27:49.000Z,10.79
2022-08-24T08:28:50.000Z,10.87
2022-08-24T08:29:50.000Z,10.84
2022-08-24T08:30:51.000Z,10.79
2022-08-24T08:31:51.000Z,10.87
2022-08-24T08:32:49.000Z,10.86
2022-08-24T08:33:49.000Z,10.79
2022-08-24T08:34:49.000Z,10.77
2022-08-24T08:35:54.000Z,10.82
2022-08-24T08:36:50.000Z,10.81
2022-08-24T08:37:50.000Z,10.89
2022-08-24T08:38:50.000Z,10.90
2022-08-24T08:39:49.000Z,10.86
2022-08-24T08:41:14.000Z,10.91
2022-08-24T08:41:59.000Z,10.96
2022-08-24T08:43:13.000Z,10.92
2022-08-24T08:43:59.000Z,10.74
2022-08-24T08:45:06.000Z,10.80
2022-08-24T08:46:03.000Z,10.79
2022-08-24T08:47:09.000Z,10.82
2022-08-24T08:48:09.000Z,10.90
2022-08-24T08:49:10.000Z,10.95
2022-08-24T08:50:01.000Z,10.88
2022-08-24T08:51:10.000Z,10.89
2022-08-24T08:51:59.000Z,10.82
2022-08-24T08:53:13.000Z,10.80
2022-08-24T08:53:59.000Z,10.85
2022-08-24T08:54:59.000Z,10.85
2022-08-24T08:55:59.000Z,10.82
2022-08-24T08:57:06.000Z,10.87
2022-08-24T08:58:23.000Z,10.88
2022-08-24T08:59:13.000Z,10.84
2022-08-24T09:00:18.000Z,10.89
2022-08-24T09:00:59.000Z,10.94
2022-08-24T09:02:20.000Z,10.94
2022-08-24T09:03:05.000Z,10.86
2022-08-24T09:03:59.000Z,10.92
2022-08-24T09:05:12.000Z,10.87
2022-08-24T09:06:00.000Z,10.89
2022-08-24T09:07:07.000Z,10.88
2022-08-24T09:07:59.000Z,10.93
2022-08-24T09:09:00.000Z,10.94
2022-08-24T09:10:00.000Z,10.98
2022-08-24T09:11:10.000Z,10.95
2022-08-24T09:12:01.000Z,10.94
2022-08-24T09:13:14.000Z,10.93
2022-08-24T09:14:13.000Z,10.97
2022-08-24T09:15:10.000Z,10.94
2022-08-24T09:16:21.000Z,10.90
2022-08-24T09:17:02.000Z,10.91
2022-08-24T09:18:20.000Z,10.92
2022-08-24T09:19:06.000Z,10.96
2022-08-24T09:20:07.000Z,10.95
2022-08-24T09:21:09.000Z,11.06
2022-08-24T09:22:10.000Z,10.97
2022-08-24T09:23:03.000Z,11.00
2022-08-24T09:24:03.000Z,10.99
2022-08-24T09:25:13.000Z,11.09
2022-08-24T09:26:00.000Z,10.86
2022-08-24T09:26:59.000Z,10.98
2022-08-24T09:28:01.000Z,10.88
2022-08-24T09:29:07.000Z,10.94
2022-08-24T09:30:02.000Z,10.88
2022-08-24T09:31:00.000Z,10.93
2022-08-24T09:32:10.000Z,10.90
2022-08-24T09:32:58.000Z,10.90
2022-08-24T09:33:59.000Z,10.86
2022-08-24T09:35:01.000Z,11.00
2022-08-24T09:36:16.000Z,11.04
2022-08-24T09:37:03.000Z,11.10
2022-08-24T09:38:13.000Z,11.08
2022-08-24T09:38:56.000Z,11.15
2022-08-24T09:40:12.000Z,11.16
2022-08-24T09:41:14.000Z,11.21
2022-08-24T09:42:04.000Z,11.18
2022-08-24T09:42:59.000Z,11.22
2022-08-24T09:43:59.000Z,11.18
2022-08-24T09:45:12.000Z,11.26
2022-08-24T09:46:08.000Z,11.23
2022-08-24T09:47:18.000Z,11.27
2022-08-24T09:48:09.000Z,11.31
2022-08-24T09:49:09.000Z,11.24
2022-08-24T09:49:59.000Z,11.42
2022-08-24T09:51:07.000Z,11.38
2022-08-24T09:52:13.000Z,11.24
2022-08-24T09:53:12.000Z,11.12
2022-08-24T09:54:04.000Z,11.06
2022-08-24T09:55:15.000Z,11.19
2022-08-24T09:56:02.000Z,11.22
2022-08-24T09:57:10.000Z,11.14
2022-08-24T09:58:24.000Z,10.96
2022-08-24T09:59:12.000Z,10.85
2022-08-24T10:00:02.000Z,10.93
2022-08-24T10:00:59.000Z,10.62
2022-08-24T10:02:21.000Z,10.79
2022-08-24T10:02:57.000Z,10.78
2022-08-24T10:03:59.000Z,10.99
2022-08-24T10:05:15.000Z,11.03
2022-08-24T10:06:05.000Z,11.09
2022-08-24T10:07:03.000Z,11.12
2022-08-24T10:07:59.000Z,11.14
2022-08-24T10:08:59.000Z,11.15
2022-08-24T10:10:09.000Z,11.02
2022-08-24T10:11:01.000Z,11.17
2022-08-24T10:11:59.000Z,11.24
2022-08-24T10:13:12.000Z,11.31
2022-08-24T10:14:00.000Z,10.81
2022-08-24T10:15:00.000Z,10.85
2022-08-24T10:16:04.000Z,10.72
2022-08-24T10:17:02.000Z,10.67
2022-08-24T10:18:15.000Z,10.71
2022-08-24T10:19:05.000Z,10.70
2022-08-24T10:20:02.000Z,10.69
2022-08-24T10:21:07.000Z,10.52
2022-08-24T10:22:17.000Z,10.50
2022-08-24T10:22:59.000Z,10.42
2022-08-24T10:24:25.000Z,10.58
2022-08-24T10:25:15.000Z,10.57
2022-08-24T10:25:57.000Z,10.69
2022-08-24T10:27:06.000Z,10.67
2022-08-24T10:27:59.000Z,10.67
2022-08-24T10:28:59.000Z,10.70
2022-08-24T10:30:16.000Z,10.46
2022-08-24T10:31:00.000Z,10.46
2022-08-24T10:32:09.000Z,10.42
2022-08-24T10:33:03.000Z,10.35
2022-08-24T10:33:59.000Z,10.38
2022-08-24T10:35:01.000Z,10.47
2022-08-24T10:35:59.000Z,10.77
2022-08-24T10:37:13.000Z,10.76
2022-08-24T10:37:59.000Z,10.76
2022-08-24T10:39:21.000Z,10.78
2022-08-24T10:40:13.000Z,10.72
2022-08-24T10:40:59.000Z,10.91
2022-08-24T10:41:59.000Z,10.84
2022-08-24T10:43:16.000Z,10.93
2022-08-24T10:44:05.000Z,10.92
2022-08-24T10:45:07.000Z,10.95
2022-08-24T10:46:04.000Z,11.03
2022-08-24T10:47:09.000Z,11.00
2022-08-24T10:48:09.000Z,10.87
2022-08-24T10:49:09.000Z,10.97
2022-08-24T10:50:13.000Z,11.13
2022-08-24T10:50:59.000Z,11.11
2022-08-24T10:51:59.000Z,11.08
2022-08-24T10:53:09.000Z,11.14
2022-08-24T10:53:51.000Z,10.97
2022-08-24T10:54:49.000Z,10.97
2022-08-24T10:56:08.000Z,10.99
2022-08-24T10:57:03.000Z,10.83
2022-08-24T10:58:02.000Z,10.89
2022-08-24T10:58:59.000Z,10.98
2022-08-24T11:00:02.000Z,10.98
2022-08-24T11:00:49.000Z,11.13
2022-08-24T11:02:12.000Z,10.87
2022-08-24T11:03:20.000Z,11.05
2022-08-24T11:03:56.000Z,11.13
2022-08-24T11:04:54.000Z,11.17
2022-08-24T11:05:52.000Z,11.21
2022-08-24T11:06:59.000Z,11.18
2022-08-24T11:07:56.000Z,11.09
2022-08-24T11:08:53.000Z,11.03
2022-08-24T11:09:57.000Z,11.07
2022-08-24T11:10:59.000Z,10.99
2022-08-24T11:11:49.000Z,11.08
2022-08-24T11:12:49.000Z,11.19
2022-08-24T11:13:57.000Z,10.79
2022-08-24T11:14:51.000Z,10.92
2022-08-24T11:15:54.000Z,11.12
2022-08-24T11:16:49.000Z,11.00
2022-08-24T11:17:54.000Z,10.91
2022-08-24T11:18:52.000Z,10.95
2022-08-24T11:19:49.000Z,10.87
2022-08-24T11:20:52.000Z,10.89
2022-08-24T11:21:52.000Z,10.97
2022-08-24T11:23:00.000Z,10.94
2022-08-24T11:23:49.000Z,10.87
2022-08-24T11:24:52.000Z,10.89
2022-08-24T11:26:00.000Z,10.79
2022-08-24T11:26:54.000Z,10.88
2022-08-24T11:27:55.000Z,10.96
2022-08-24T11:28:55.000Z,10.86
2022-08-24T11:29:56.000Z,10.93
2022-08-24T11:30:49.000Z,10.99
2022-08-24T11:31:50.000Z,10.89
2022-08-24T11:32:58.000Z,10.97
2022-08-24T11:33:57.000Z,10.96
2022-08-24T11:34:49.000Z,10.90
2022-08-24T11:35:49.000Z,10.96
2022-08-24T11:36:49.000Z,10.95
2022-08-24T11:37:53.000Z,10.97
2022-08-24T11:39:05.000Z,10.70
2022-08-24T11:39:49.000Z,10.58
2022-08-24T11:40:55.000Z,10.83
2022-08-24T11:42:02.000Z,10.85
2022-08-24T11:43:11.000Z,11.05
2022-08-24T11:44:00.000Z,11.11
2022-08-24T11:45:00.000Z,11.11
2022-08-24T11:46:10.000Z,11.11
2022-08-24T11:47:00.000Z,10.99
2022-08-24T11:48:10.000Z,10.91
2022-08-24T11:49:00.000Z,11.00
2022-08-24T11:50:07.000Z,11.06
2022-08-24T11:51:10.000Z,11.11
2022-08-24T11:52:20.000Z,11.05
2022-08-24T11:53:13.000Z,11.04
2022-08-24T11:54:00.000Z,10.95
2022-08-24T11:55:02.000Z,11.06
2022-08-24T11:56:15.000Z,11.07
2022-08-24T11:57:03.000Z,11.03
2022-08-24T11:58:00.000Z,10.86
2022-08-24T11:59:04.000Z,10.88
2022-08-24T12:00:00.000Z,10.90
2022-08-24T12:00:58.000Z,11.12
2022-08-24T12:01:56.000Z,11.12
2022-08-24T12:03:23.000Z,11.13
2022-08-24T12:04:10.000Z,11.10
2022-08-24T12:05:00.000Z,11.15
2022-08-24T12:06:01.000Z,11.12
2022-08-24T12:07:01.000Z,11.05
2022-08-24T12:08:08.000Z,10.67
2022-08-24T12:09:03.000Z,10.93
2022-08-24T12:10:02.000Z,10.95
2022-08-24T12:11:05.000Z,10.98
2022-08-24T12:11:59.000Z,10.88
2022-08-24T12:12:59.000Z,10.83
2022-08-24T12:14:04.000Z,10.53
2022-08-24T12:15:01.000Z,10.69
2022-08-24T12:16:01.000Z,10.68
2022-08-24T12:17:14.000Z,10.77
2022-08-24T12:17:56.000Z,10.69
2022-08-24T12:18:58.000Z,10.66
2022-08-24T12:19:58.000Z,10.50
2022-08-24T12:20:51.000Z,10.37
2022-08-24T12:21:53.000Z,10.36
2022-08-24T12:22:53.000Z,10.34
2022-08-24T12:24:12.000Z,10.46
2022-08-24T12:24:54.000Z,10.29
2022-08-24T12:26:04.000Z,10.14
2022-08-24T12:26:54.000Z,10.03
2022-08-24T12:27:51.000Z,10.28
2022-08-24T12:28:54.000Z,10.38
2022-08-24T12:30:00.000Z,10.27
2022-08-24T12:30:52.000Z,10.35
2022-08-24T12:31:55.000Z,10.16
2022-08-24T12:33:07.000Z,10.23
2022-08-24T12:33:54.000Z,10.20
2022-08-24T12:35:04.000Z,10.30
2022-08-24T12:35:57.000Z,10.01
2022-08-24T12:36:59.000Z,10.09
2022-08-24T12:37:58.000Z,10.03
2022-08-24T12:38:59.000Z,9.90
2022-08-24T12:40:02.000Z,10.14
2022-08-24T12:41:01.000Z,9.91
2022-08-24T12:42:00.000Z,9.89
2022-08-24T12:42:59.000Z,10.00
2022-08-24T12:44:00.000Z,9.93
2022-08-24T12:45:00.000Z,9.98
2022-08-24T12:45:53.000Z,10.06
2022-08-24T12:46:52.000Z,9.98
2022-08-24T12:48:10.000Z,9.63
2022-08-24T12:49:01.000Z,9.76
2022-08-24T12:49:56.000Z,9.80
2022-08-24T12:50:59.000Z,9.81
2022-08-24T12:52:16.000Z,9.82
2022-08-24T12:53:09.000Z,9.89
2022-08-24T12:54:13.000Z,9.90
2022-08-24T12:55:00.000Z,9.79
2022-08-24T12:56:00.000Z,9.93
2022-08-24T12:57:09.000Z,9.87
2022-08-24T12:57:59.000Z,9.87
2022-08-24T12:59:13.000Z,9.82
2022-08-24T12:59:57.000Z,10.06
2022-08-24T13:00:50.000Z,10.07
2022-08-24T13:02:10.000Z,9.70
2022-08-24T13:02:57.000Z,9.78
2022-08-24T13:04:00.000Z,10.00
2022-08-24T13:05:08.000Z,10.05
2022-08-24T13:05:57.000Z,9.85
2022-08-24T13:06:59.000Z,9.92
2022-08-24T13:07:51.000Z,9.89
2022-08-24T13:08:51.000Z,9.90